createdAt,value
2023-10-06T00:01:05.891Z,14.80
2023-10-06T00:03:33.031Z,14.70
2023-10-06T00:06:00.285Z,14.80
2023-10-06T00:08:42.333Z,14.70
2023-10-06T00:11:13.319Z,14.70
2023-10-06T00:13:41.003Z,14.70
2023-10-06T00:16:08.992Z,14.70
2023-10-06T00:18:38.944Z,14.60
2023-10-06T00:21:08.756Z,14.60
2023-10-06T00:23:40.481Z,14.60
2023-10-06T00:26:17.877Z,14.50
2023-10-06T00:28:48.074Z,14.60
2023-10-06T00:31:15.626Z,14.50
2023-10-06T00:33:46.824Z,14.50
2023-10-06T00:36:17.263Z,14.50
2023-10-06T00:38:48.724Z,14.50
2023-10-06T00:41:16.153Z,14.40
2023-10-06T00:43:45.729Z,14.40
2023-10-06T00:46:14.260Z,14.40
2023-10-06T00:48:42.664Z,14.30
2023-10-06T00:51:27.686Z,14.30
2023-10-06T00:53:58.737Z,14.10
2023-10-06T00:56:27.218Z,14.00
2023-10-06T00:58:54.892Z,14.10
2023-10-06T01:01:23.561Z,14.00
2023-10-06T01:04:09.783Z,14.10
2023-10-06T01:06:38.102Z,14.10
2023-10-06T01:09:10.073Z,14.10
2023-10-06T01:11:42.398Z,14.10
2023-10-06T01:14:09.756Z,14.10
2023-10-06T01:16:37.160Z,14.10
2023-10-06T01:19:18.896Z,14.10
2023-10-06T01:21:49.442Z,14.10
2023-10-06T01:24:16.978Z,14.10
2023-10-06T01:26:44.232Z,14.00
2023-10-06T01:29:15.280Z,14.00
2023-10-06T01:31:43.136Z,14.00
2023-10-06T01:34:11.718Z,14.00
2023-10-06T01:36:39.811Z,14.00
2023-10-06T01:39:17.374Z,14.00
2023-10-06T01:41:51.377Z,14.00
2023-10-06T01:44:18.977Z,13.90
2023-10-06T01:46:54.922Z,13.90
2023-10-06T01:49:23.471Z,13.90
2023-10-06T01:54:29.409Z,13.90
2023-10-06T01:56:56.597Z,13.90
2023-10-06T01:59:23.797Z,13.90
2023-10-06T02:01:51.060Z,13.90
2023-10-06T02:04:20.696Z,13.90
2023-10-06T02:06:49.701Z,13.90
2023-10-06T02:09:17.264Z,13.80
2023-10-06T02:11:44.505Z,13.70
2023-10-06T02:14:12.599Z,13.70
2023-10-06T02:16:39.732Z,13.80
2023-10-06T02:19:12.728Z,13.80
2023-10-06T02:21:44.385Z,13.70
2023-10-06T02:24:11.734Z,13.70
2023-10-06T02:26:38.880Z,13.70
2023-10-06T02:29:16.802Z,13.70
2023-10-06T02:31:44.011Z,13.70
2023-10-06T02:34:17.042Z,13.70
2023-10-06T02:36:44.256Z,13.70
2023-10-06T02:39:17.307Z,13.70
2023-10-06T02:41:44.567Z,13.70
2023-10-06T02:44:24.084Z,13.70
2023-10-06T02:46:54.968Z,13.70
2023-10-06T02:49:42.881Z,13.70
2023-10-06T02:52:17.757Z,13.70
2023-10-06T02:55:03.521Z,13.60
2023-10-06T02:57:36.312Z,13.60
2023-10-06T03:00:25.287Z,13.70
2023-10-06T03:03:13.898Z,13.70
2023-10-06T03:05:41.431Z,13.70
2023-10-06T03:08:11.622Z,13.70
2023-10-06T03:13:44.948Z,13.70
2023-10-06T03:16:12.406Z,13.60
2023-10-06T03:18:41.014Z,13.60
2023-10-06T03:21:14.059Z,13.60
2023-10-06T03:23:45.581Z,13.60
2023-10-06T03:26:27.280Z,13.60
2023-10-06T03:28:54.829Z,13.60
2023-10-06T03:31:22.283Z,13.60
2023-10-06T03:33:50.286Z,13.60
2023-10-06T03:36:18.374Z,13.60
2023-10-06T03:38:54.496Z,13.60
2023-10-06T03:41:26.434Z,13.60
2023-10-06T03:44:01.103Z,13.60
2023-10-06T03:46:38.312Z,13.70
2023-10-06T03:49:06.059Z,13.60
2023-10-06T03:51:42.596Z,13.60
2023-10-06T03:54:10.906Z,13.60
2023-10-06T03:56:38.129Z,13.60
2023-10-06T03:59:14.808Z,13.60
2023-10-06T04:01:45.871Z,13.70
2023-10-06T04:04:15.754Z,13.70
2023-10-06T04:06:43.046Z,13.70
2023-10-06T04:09:13.126Z,13.70
2023-10-06T04:11:40.526Z,13.70
2023-10-06T04:14:15.197Z,13.60
2023-10-06T04:16:47.428Z,13.70
2023-10-06T04:19:16.976Z,13.60
2023-10-06T04:21:44.560Z,13.60
2023-10-06T04:24:11.703Z,13.60
2023-10-06T04:26:40.476Z,13.60
2023-10-06T04:29:11.047Z,13.60
2023-10-06T04:31:38.610Z,13.60
2023-10-06T04:34:05.818Z,13.60
2023-10-06T04:36:33.420Z,13.60
2023-10-06T04:39:00.557Z,13.60
2023-10-06T04:41:27.750Z,13.60
2023-10-06T04:43:54.898Z,13.60
2023-10-06T04:46:22.121Z,13.60
2023-10-06T04:48:49.868Z,13.60
2023-10-06T04:51:16.940Z,13.60
2023-10-06T04:53:47.093Z,13.50
2023-10-06T04:56:14.468Z,13.50
2023-10-06T04:58:41.824Z,13.50
2023-10-06T05:01:09.910Z,13.50
2023-10-06T05:03:48.039Z,13.50
2023-10-06T05:06:18.679Z,13.50
2023-10-06T05:08:49.184Z,13.40
2023-10-06T05:11:20.546Z,13.30
2023-10-06T05:13:51.008Z,13.30
2023-10-06T05:16:20.594Z,13.20
2023-10-06T05:18:49.170Z,13.20
2023-10-06T05:21:16.999Z,13.20
2023-10-06T05:23:46.824Z,13.20
2023-10-06T05:26:18.027Z,13.20
2023-10-06T05:28:45.795Z,13.20
2023-10-06T05:31:16.420Z,13.20
2023-10-06T05:33:43.580Z,13.20
2023-10-06T05:36:11.708Z,13.10
2023-10-06T05:38:39.158Z,13.10
2023-10-06T05:41:13.651Z,13.10
2023-10-06T05:43:42.080Z,13.10
2023-10-06T05:46:13.201Z,13.10
2023-10-06T05:48:41.579Z,13.10
2023-10-06T05:51:12.984Z,13.10
2023-10-06T05:53:45.677Z,13.10
2023-10-06T05:56:13.632Z,13.10
2023-10-06T05:58:42.684Z,13.10
2023-10-06T06:01:16.061Z,13.10
2023-10-06T06:03:51.558Z,13.10
2023-10-06T06:06:24.625Z,13.10
2023-10-06T06:08:54.866Z,13.10
2023-10-06T06:11:22.489Z,13.10
2023-10-06T06:14:02.314Z,13.10
2023-10-06T06:16:34.285Z,13.10
2023-10-06T06:19:01.424Z,13.10
2023-10-06T06:21:30.824Z,13.10
2023-10-06T06:23:58.790Z,13.10
2023-10-06T06:26:26.486Z,13.20
2023-10-06T06:28:54.738Z,13.20
2023-10-06T06:31:23.168Z,13.20
2023-10-06T06:33:58.576Z,13.20
2023-10-06T06:36:26.943Z,13.20
2023-10-06T06:38:55.440Z,13.30
2023-10-06T06:41:23.105Z,13.30
2023-10-06T06:43:50.564Z,13.40
2023-10-06T06:46:18.687Z,13.40
2023-10-06T06:48:48.274Z,13.50
2023-10-06T06:51:15.369Z,13.50
2023-10-06T06:53:42.694Z,13.60
2023-10-06T06:56:12.495Z,13.60
2023-10-06T06:58:39.787Z,13.70
2023-10-06T07:01:16.240Z,13.70
2023-10-06T07:03:43.818Z,13.80
2023-10-06T07:06:15.789Z,13.90
2023-10-06T07:08:43.692Z,14.00
2023-10-06T07:11:14.611Z,14.00
2023-10-06T07:13:43.874Z,14.10
2023-10-06T07:16:11.488Z,14.20
2023-10-06T07:18:39.239Z,14.20
2023-10-06T07:21:10.670Z,14.30
2023-10-06T07:23:39.316Z,14.40
2023-10-06T07:26:10.378Z,14.40
2023-10-06T07:28:39.476Z,14.50
2023-10-06T07:31:10.358Z,14.60
2023-10-06T07:33:37.460Z,14.60
2023-10-06T07:36:13.461Z,14.70
2023-10-06T07:38:40.928Z,14.70
2023-10-06T07:41:08.410Z,14.80
2023-10-06T07:43:35.647Z,14.80
2023-10-06T07:46:05.314Z,14.80
2023-10-06T07:48:32.445Z,14.90
2023-10-06T07:51:07.369Z,14.90
2023-10-06T07:53:36.633Z,14.90
2023-10-06T07:56:08.053Z,14.90
2023-10-06T07:58:37.180Z,15.00
2023-10-06T08:01:06.613Z,15.10
2023-10-06T08:03:35.013Z,15.10
2023-10-06T08:06:02.554Z,15.30
2023-10-06T08:08:30.279Z,15.30
2023-10-06T08:11:01.865Z,15.50
2023-10-06T08:13:30.096Z,15.50
2023-10-06T08:15:57.334Z,15.70
2023-10-06T08:18:24.443Z,15.80
2023-10-06T08:20:51.999Z,15.90
2023-10-06T08:23:19.167Z,16.10
2023-10-06T08:25:59.680Z,16.20
2023-10-06T08:28:28.371Z,16.30
2023-10-06T08:30:55.758Z,16.50
2023-10-06T08:33:27.528Z,16.60
2023-10-06T08:35:59.089Z,16.70
2023-10-06T08:38:26.551Z,16.80
2023-10-06T08:41:00.299Z,16.80
2023-10-06T08:43:28.809Z,16.80
2023-10-06T08:46:02.473Z,16.90
2023-10-06T08:48:33.271Z,16.90
2023-10-06T08:51:01.208Z,17.00
2023-10-06T08:53:30.847Z,17.00
2023-10-06T08:55:58.695Z,17.10
2023-10-06T08:58:28.280Z,17.10
2023-10-06T09:00:57.364Z,17.10
2023-10-06T09:03:27.679Z,17.20
2023-10-06T09:08:45.257Z,17.40
2023-10-06T09:11:12.381Z,17.50
2023-10-06T09:13:39.751Z,17.50
2023-10-06T09:16:11.488Z,17.60
2023-10-06T09:18:42.642Z,17.60
2023-10-06T09:21:23.144Z,17.70
2023-10-06T09:23:51.135Z,17.70
2023-10-06T09:26:29.300Z,17.80
2023-10-06T09:28:57.645Z,17.90
2023-10-06T09:31:48.313Z,18.00
2023-10-06T09:34:28.020Z,18.00
2023-10-06T09:36:55.344Z,18.20
2023-10-06T09:39:31.095Z,18.20
2023-10-06T09:41:59.462Z,18.30
2023-10-06T09:44:28.303Z,18.40
2023-10-06T09:46:56.094Z,18.40
2023-10-06T09:49:23.481Z,18.50
2023-10-06T09:51:52.555Z,18.60
2023-10-06T09:54:21.797Z,18.70
2023-10-06T09:56:49.662Z,18.80
2023-10-06T09:59:17.874Z,18.90
2023-10-06T10:01:49.075Z,19.00
2023-10-06T10:04:16.578Z,19.10
2023-10-06T10:06:47.326Z,19.20
2023-10-06T10:09:18.625Z,19.20
2023-10-06T10:11:48.594Z,19.20
2023-10-06T10:14:22.549Z,19.30
2023-10-06T10:17:20.157Z,19.30
2023-10-06T10:19:48.024Z,19.30
2023-10-06T10:22:17.633Z,19.30
2023-10-06T10:27:23.969Z,19.40
2023-10-06T10:29:51.067Z,19.40
2023-10-06T10:32:19.217Z,19.40
2023-10-06T10:35:05.556Z,19.50
2023-10-06T10:37:32.834Z,19.50
2023-10-06T10:40:00.949Z,19.50
2023-10-06T10:42:41.017Z,19.50
2023-10-06T10:45:26.625Z,19.50
2023-10-06T10:47:56.788Z,19.50
2023-10-06T10:50:27.525Z,19.50
2023-10-06T10:52:55.147Z,19.60
2023-10-06T10:55:28.393Z,19.60
2023-10-06T10:57:55.496Z,19.60
2023-10-06T11:00:22.855Z,19.60
2023-10-06T11:02:49.981Z,19.70
2023-10-06T11:05:20.786Z,19.70
2023-10-06T11:07:57.081Z,19.70
2023-10-06T11:10:25.073Z,19.70
2023-10-06T11:12:52.386Z,19.70
2023-10-06T11:15:29.048Z,19.80
2023-10-06T11:17:57.082Z,19.80
2023-10-06T11:20:26.467Z,19.90
2023-10-06T11:22:58.886Z,19.90
2023-10-06T11:25:29.216Z,20.00
2023-10-06T11:27:59.153Z,20.00
2023-10-06T11:30:27.493Z,20.10
2023-10-06T11:32:58.812Z,20.10
2023-10-06T11:35:26.550Z,20.10
2023-10-06T11:37:54.396Z,20.10
2023-10-06T11:40:23.275Z,20.10
2023-10-06T11:42:50.358Z,20.20
2023-10-06T11:45:29.145Z,20.20
2023-10-06T11:47:57.742Z,20.30
2023-10-06T11:50:29.853Z,20.40
2023-10-06T11:52:57.629Z,20.50
2023-10-06T11:55:26.271Z,20.60
2023-10-06T11:57:53.560Z,20.60
2023-10-06T12:00:33.809Z,20.60
2023-10-06T12:03:02.303Z,20.70
2023-10-06T12:05:30.287Z,20.80
2023-10-06T12:08:05.447Z,20.80
2023-10-06T12:10:34.158Z,20.90
2023-10-06T12:13:01.502Z,21.00
2023-10-06T12:15:31.171Z,21.10
2023-10-06T12:17:58.664Z,21.40
2023-10-06T12:20:26.293Z,21.40
2023-10-06T12:22:55.247Z,21.60
2023-10-06T12:25:24.862Z,21.70
2023-10-06T12:27:52.083Z,21.90
2023-10-06T12:30:19.511Z,22.00
2023-10-06T12:32:49.405Z,22.20
2023-10-06T12:35:23.224Z,22.30
2023-10-06T12:37:50.479Z,22.40
2023-10-06T12:40:18.081Z,22.50
2023-10-06T12:42:45.688Z,22.60
2023-10-06T12:45:20.095Z,22.70
2023-10-06T12:47:48.261Z,22.70
2023-10-06T12:50:18.739Z,22.80
2023-10-06T12:52:53.736Z,22.90
2023-10-06T12:55:26.215Z,23.00
2023-10-06T12:57:54.427Z,23.10
2023-10-06T13:00:22.124Z,23.10
2023-10-06T13:02:50.198Z,23.20
2023-10-06T13:05:24.280Z,23.20
2023-10-06T13:07:53.045Z,23.20
2023-10-06T13:10:23.975Z,23.30
2023-10-06T13:12:51.682Z,23.40
2023-10-06T13:15:20.511Z,23.50
2023-10-06T13:17:49.393Z,23.50
2023-10-06T13:20:17.831Z,23.60
2023-10-06T13:22:47.437Z,23.60
2023-10-06T13:25:14.597Z,23.70
2023-10-06T13:27:43.222Z,23.80
2023-10-06T13:30:16.541Z,23.80
2023-10-06T13:32:46.760Z,23.80
2023-10-06T13:35:17.680Z,23.90
2023-10-06T13:37:45.756Z,24.00
2023-10-06T13:40:17.350Z,24.00
2023-10-06T13:42:49.120Z,24.10
2023-10-06T13:45:21.996Z,24.20
2023-10-06T13:47:50.926Z,24.20
2023-10-06T13:50:21.017Z,24.30
2023-10-06T13:52:50.761Z,24.30
2023-10-06T13:55:18.868Z,24.30
2023-10-06T13:57:47.013Z,24.30
2023-10-06T14:00:29.487Z,24.30
2023-10-06T14:02:59.357Z,24.30
2023-10-06T14:05:30.634Z,24.30
2023-10-06T14:07:59.731Z,24.30
2023-10-06T14:10:27.841Z,24.30
2023-10-06T14:13:02.337Z,24.30
2023-10-06T14:15:41.830Z,24.20
2023-10-06T14:18:09.710Z,24.20
2023-10-06T14:20:37.447Z,24.10
2023-10-06T14:23:04.918Z,24.10
2023-10-06T14:25:34.550Z,24.00
2023-10-06T14:28:02.257Z,24.00
2023-10-06T14:30:31.423Z,23.90
2023-10-06T14:33:13.865Z,23.90
2023-10-06T14:35:59.930Z,23.80
2023-10-06T14:38:34.039Z,23.80
2023-10-06T14:41:20.955Z,23.70
2023-10-06T14:44:09.718Z,23.80
2023-10-06T14:46:38.543Z,23.70
2023-10-06T14:49:07.095Z,23.70
2023-10-06T14:51:37.982Z,23.70
2023-10-06T14:54:06.536Z,23.70
2023-10-06T14:56:35.631Z,23.80
2023-10-06T14:59:02.906Z,23.90
2023-10-06T15:01:30.106Z,23.90
2023-10-06T15:04:05.932Z,23.90
2023-10-06T15:06:36.293Z,23.90
2023-10-06T15:09:03.385Z,23.90
2023-10-06T15:11:30.548Z,24.00
2023-10-06T15:13:57.833Z,24.00
2023-10-06T15:16:25.069Z,24.00
2023-10-06T15:18:52.246Z,23.80
2023-10-06T15:21:25.140Z,23.70
2023-10-06T15:23:54.720Z,23.70
2023-10-06T15:26:26.005Z,23.60
2023-10-06T15:28:55.014Z,23.50
2023-10-06T15:31:22.414Z,23.40
2023-10-06T15:33:50.183Z,23.20
2023-10-06T15:36:18.477Z,23.10
2023-10-06T15:38:48.233Z,23.30
2023-10-06T15:41:18.865Z,23.40
2023-10-06T15:43:49.399Z,23.50
2023-10-06T15:46:19.523Z,23.50
2023-10-06T15:48:46.980Z,23.50
2023-10-06T15:51:14.773Z,23.50
2023-10-06T15:53:42.918Z,23.50
2023-10-06T15:56:15.016Z,23.50
2023-10-06T15:58:43.160Z,23.50
2023-10-06T16:01:10.997Z,23.50
2023-10-06T16:03:40.124Z,23.50
2023-10-06T16:06:16.120Z,23.40
2023-10-06T16:08:48.240Z,23.40
2023-10-06T16:11:15.956Z,23.30
2023-10-06T16:13:46.644Z,23.30
2023-10-06T16:19:05.594Z,23.30
2023-10-06T16:21:36.778Z,23.20
2023-10-06T16:24:07.290Z,23.20
2023-10-06T16:26:34.588Z,23.10
2023-10-06T16:29:02.528Z,23.00
2023-10-06T16:31:31.052Z,22.90
2023-10-06T16:33:59.207Z,22.80
2023-10-06T16:36:26.381Z,22.70
2023-10-06T16:38:53.609Z,22.70
2023-10-06T16:41:24.085Z,22.60
2023-10-06T16:43:54.991Z,22.60
2023-10-06T16:46:22.680Z,22.40
2023-10-06T16:48:49.839Z,22.30
2023-10-06T16:51:19.342Z,22.30
2023-10-06T16:53:49.836Z,22.20
2023-10-06T16:56:17.581Z,22.10
2023-10-06T16:58:44.679Z,22.00
2023-10-06T17:01:13.310Z,21.90
2023-10-06T17:03:41.253Z,21.80
2023-10-06T17:06:11.721Z,21.70
2023-10-06T17:08:40.056Z,21.60
2023-10-06T17:11:25.552Z,21.50
2023-10-06T17:13:54.680Z,21.30
2023-10-06T17:16:23.351Z,21.10
2023-10-06T17:18:50.601Z,21.00
2023-10-06T17:21:17.803Z,20.90
2023-10-06T17:23:46.074Z,20.80
2023-10-06T17:26:16.774Z,20.70
2023-10-06T17:28:44.128Z,20.60
2023-10-06T17:31:21.767Z,20.50
2023-10-06T17:33:52.793Z,20.40
2023-10-06T17:36:20.142Z,20.30
2023-10-06T17:38:47.226Z,20.20
2023-10-06T17:41:18.019Z,20.10
2023-10-06T17:43:46.630Z,20.00
2023-10-06T17:46:14.585Z,19.90
2023-10-06T17:48:46.951Z,19.80
2023-10-06T17:51:18.387Z,19.70
2023-10-06T17:53:45.878Z,19.60
2023-10-06T17:56:13.202Z,19.50
2023-10-06T17:58:41.207Z,19.40
2023-10-06T18:01:08.902Z,19.30
2023-10-06T18:03:36.295Z,19.20
2023-10-06T18:06:03.951Z,19.20
2023-10-06T18:08:31.174Z,19.00
2023-10-06T18:10:58.416Z,18.90
2023-10-06T18:13:25.992Z,18.90
2023-10-06T18:15:53.715Z,18.80
2023-10-06T18:18:20.897Z,18.80
2023-10-06T18:20:51.795Z,18.70
2023-10-06T18:23:18.991Z,18.60
2023-10-06T18:25:46.155Z,18.60
2023-10-06T18:28:13.340Z,18.50
2023-10-06T18:30:40.460Z,18.50
2023-10-06T18:33:07.597Z,18.40
2023-10-06T18:35:37.661Z,18.40
2023-10-06T18:38:05.044Z,18.30
2023-10-06T18:40:34.200Z,18.30
2023-10-06T18:43:01.622Z,18.20
2023-10-06T18:45:29.836Z,18.20
2023-10-06T18:47:57.354Z,18.10
2023-10-06T18:50:24.740Z,18.10
2023-10-06T18:52:52.758Z,18.10
2023-10-06T18:55:24.046Z,18.00
2023-10-06T18:57:52.628Z,17.90
2023-10-06T19:00:24.474Z,17.90
2023-10-06T19:02:52.177Z,17.90
2023-10-06T19:05:19.710Z,17.80
2023-10-06T19:07:47.119Z,17.70
2023-10-06T19:10:15.844Z,17.60
2023-10-06T19:12:43.467Z,17.60
2023-10-06T19:15:10.939Z,17.50
2023-10-06T19:20:38.093Z,17.40
2023-10-06T19:25:43.498Z,17.40
2023-10-06T19:28:13.787Z,17.30
2023-10-06T19:30:40.992Z,17.30
2023-10-06T19:33:09.258Z,17.40
2023-10-06T19:35:39.737Z,17.30
2023-10-06T19:38:09.103Z,17.30
2023-10-06T19:40:36.310Z,17.30
2023-10-06T19:43:03.448Z,17.20
2023-10-06T19:45:31.043Z,17.20
2023-10-06T19:47:58.539Z,17.10
2023-10-06T19:50:25.739Z,17.10
2023-10-06T19:52:52.908Z,17.10
2023-10-06T19:55:20.260Z,17.10
2023-10-06T19:57:47.894Z,17.10
2023-10-06T20:00:27.450Z,17.00
2023-10-06T20:02:55.179Z,17.00
2023-10-06T20:05:22.962Z,17.00
2023-10-06T20:07:53.084Z,17.00
2023-10-06T20:10:23.333Z,17.00
2023-10-06T20:12:51.389Z,16.90
2023-10-06T20:15:20.585Z,17.00
2023-10-06T20:17:48.446Z,16.90
2023-10-06T20:20:22.042Z,17.00
2023-10-06T20:22:49.715Z,16.90
2023-10-06T20:25:17.250Z,17.00
2023-10-06T20:27:50.127Z,17.00
2023-10-06T20:30:18.023Z,17.00
2023-10-06T20:32:48.471Z,17.00
2023-10-06T20:35:15.667Z,16.90
2023-10-06T20:37:43.159Z,16.90
2023-10-06T20:40:26.242Z,16.90
2023-10-06T20:42:55.055Z,16.90
2023-10-06T20:45:22.704Z,16.90
2023-10-06T20:47:49.857Z,16.90
2023-10-06T20:50:19.357Z,17.00
2023-10-06T20:52:46.654Z,16.90
2023-10-06T20:55:14.237Z,16.90
2023-10-06T20:57:41.585Z,16.90
2023-10-06T21:00:11.829Z,16.90
2023-10-06T21:02:39.262Z,16.80
2023-10-06T21:05:07.671Z,16.80
2023-10-06T21:07:35.516Z,16.70
2023-10-06T21:10:07.645Z,16.70
2023-10-06T21:12:35.172Z,16.70
2023-10-06T21:15:02.697Z,16.70
2023-10-06T21:17:29.890Z,16.70
2023-10-06T21:19:57.098Z,16.60
2023-10-06T21:22:24.232Z,16.60
2023-10-06T21:24:51.606Z,16.60
2023-10-06T21:27:18.660Z,16.60
2023-10-06T21:29:45.910Z,16.50
2023-10-06T21:32:12.923Z,16.50
2023-10-06T21:34:39.961Z,16.50
2023-10-06T21:37:07.921Z,16.50
2023-10-06T21:39:35.019Z,16.50
2023-10-06T21:42:02.054Z,16.50
2023-10-06T21:44:29.520Z,16.50
2023-10-06T21:46:59.320Z,16.50
2023-10-06T21:49:26.714Z,16.40
2023-10-06T21:51:53.802Z,16.40
2023-10-06T21:54:20.847Z,16.40
2023-10-06T21:56:48.276Z,16.40
2023-10-06T21:59:15.301Z,16.40
2023-10-06T22:01:42.793Z,16.40
2023-10-06T22:04:10.434Z,16.30
2023-10-06T22:06:38.121Z,16.30
2023-10-06T22:09:07.490Z,16.30
2023-10-06T22:11:35.575Z,16.30
2023-10-06T22:14:02.620Z,16.20
2023-10-06T22:16:29.808Z,16.20
2023-10-06T22:18:58.117Z,16.20
2023-10-06T22:21:25.194Z,16.20
2023-10-06T22:23:52.297Z,16.20
2023-10-06T22:26:19.451Z,16.10
2023-10-06T22:28:46.580Z,16.10
2023-10-06T22:31:13.934Z,16.10
2023-10-06T22:33:42.477Z,16.10
2023-10-06T22:36:09.588Z,16.10
2023-10-06T22:38:36.731Z,16.10
2023-10-06T22:41:03.850Z,16.10
2023-10-06T22:43:30.959Z,16.10
2023-10-06T22:45:58.021Z,16.10
2023-10-06T22:48:25.155Z,16.10
2023-10-06T22:50:52.213Z,16.10
2023-10-06T22:53:19.252Z,16.10
2023-10-06T22:55:46.342Z,16.10
2023-10-06T22:58:14.071Z,16.10
2023-10-06T23:00:41.106Z,16.10
2023-10-06T23:03:09.058Z,16.10
2023-10-06T23:05:36.197Z,16.10
2023-10-06T23:08:03.364Z,16.10
2023-10-06T23:10:31.400Z,16.10
2023-10-06T23:12:59.116Z,16.10
2023-10-06T23:15:33.259Z,16.10
2023-10-06T23:18:00.483Z,16.10
2023-10-06T23:20:27.690Z,16.10
2023-10-06T23:22:59.676Z,16.10
2023-10-06T23:25:37.372Z,16.20
2023-10-06T23:28:06.853Z,16.20
2023-10-06T23:30:34.515Z,16.20
2023-10-06T23:33:02.030Z,16.20
2023-10-06T23:35:29.727Z,16.20
2023-10-06T23:37:56.870Z,16.30
2023-10-06T23:40:24.384Z,16.30
2023-10-06T23:42:52.516Z,16.30
2023-10-06T23:45:27.349Z,16.40
2023-10-06T23:47:54.461Z,16.40
2023-10-06T23:50:21.949Z,16.40
2023-10-06T23:52:52.943Z,16.40
2023-10-06T23:55:23.387Z,16.40
2023-10-06T23:57:55.795Z,16.50
